Dynasty — A8TP3 — position and weather

sailwx.info

Track history (hours):
 
Tides and Currents Weather Stations Pressure Air Temp Water Temp Dewpoint Dewpoint Depression Visibility Wind Speed Wind Dir Waves Ship Positions

Dynasty

Last reported at 2018-Jul-22 13:58 UTC. Time now 2018-Jul-22 14:35 UTC.
Position N 44°42' E 037°50'.

Length 241 m; draft 8 m.

Type: Tanker. MMSI: 636014400.

Date/timePositionNaut miles runAvg speedWind from/ knotsBaromVisibWave heightAir tempDewpointWater temp
2018-Jul-22 13:58N 44°42' E 037°50'0 0.0
2018-Jul-22 13:28N 44°42' E 037°50'0 0.0
2018-Jul-22 12:58N 44°42' E 037°50'0 0.0
2018-Jul-22 12:28N 44°42' E 037°50'0 0.0
2018-Jul-22 11:58N 44°42' E 037°50'0 0.0
2018-Jul-22 11:28N 44°42' E 037°50'0 0.0
2018-Jul-22 10:58N 44°42' E 037°50'0 0.0
2018-Jul-22 10:28N 44°42' E 037°50'0 0.0
2018-Jul-22 09:58N 44°42' E 037°50'0 0.0
2018-Jul-22 09:28N 44°42' E 037°50'0 0.0
2018-Jul-22 08:58N 44°42' E 037°50'0 0.0
2018-Jul-22 08:25N 44°42' E 037°50'0 0.0
2018-Jul-22 07:58N 44°42' E 037°50'0 0.0
2018-Jul-22 07:28N 44°42' E 037°50'0 0.0
2018-Jul-22 06:58N 44°42' E 037°50'0 0.0
2018-Jul-22 06:28N 44°42' E 037°50'0 0.0
2018-Jul-22 05:58N 44°42' E 037°50'0 0.0
2018-Jul-22 05:28N 44°42' E 037°50'0 0.0
2018-Jul-22 04:58N 44°42' E 037°50'0 0.0
2018-Jul-22 04:28N 44°42' E 037°50'0 0.0
2018-Jul-22 03:58N 44°42' E 037°50'0 0.0
2018-Jul-22 03:28N 44°42' E 037°50'0 0.0
2018-Jul-22 02:58N 44°42' E 037°50'0 0.0
2018-Jul-22 02:28N 44°42' E 037°50'0 0.0
2018-Jul-22 01:58N 44°42' E 037°50'0 0.0
2018-Jul-22 01:28N 44°42' E 037°50'0 0.0
2018-Jul-22 00:58N 44°42' E 037°50'0 0.0
2018-Jul-22 00:28N 44°42' E 037°50'0 0.0
2018-Jul-21 23:58N 44°42' E 037°50'0 0.0
2018-Jul-21 23:30N 44°42' E 037°50'0 0.2
2018-Jul-21 23:00N 44°42' E 037°50'1 1.6
2018-Jul-21 22:30N 44°41' E 037°50'3 6.6
2018-Jul-21 22:00N 44°38' E 037°52'3 5.3
2018-Jul-21 21:30N 44°36' E 037°52'3 6.3
2018-Jul-21 21:00N 44°33' E 037°51'4 8.6
2018-Jul-21 20:30N 44°29' E 037°48'4 8.9
2018-Jul-21 20:00N 44°26' E 037°44'0 0.9
2018-Jul-21 19:30N 44°26' E 037°43'0 0.2
2018-Jul-21 19:00N 44°26' E 037°43'0 0.2
2018-Jul-21 18:30N 44°26' E 037°43'0 0.3
2018-Jul-21 18:00N 44°26' E 037°43'0 0.4
2018-Jul-21 17:30N 44°26' E 037°42'0 0.3
2018-Jul-21 17:00N 44°26' E 037°42'0 0.4
2018-Jul-21 16:30N 44°26' E 037°42'0 0.4
2018-Jul-21 16:00N 44°26' E 037°42'0 0.3
2018-Jul-21 15:30N 44°26' E 037°42'0 0.2
2018-Jul-21 15:00N 44°25' E 037°41'0 0.2
2018-Jul-21 14:30N 44°25' E 037°41'0 0.2
2018-Jul-21 13:30N 44°25' E 037°41'0 0.1
2018-Jul-21 13:00N 44°25' E 037°41'0 0.2
2018-Jul-21 12:30N 44°25' E 037°41'1 1.9
2018-Jul-21 12:00N 44°26' E 037°40'1 2.4
2018-Jul-21 11:30N 44°27' E 037°41'0 0.7
2018-Jul-21 11:00N 44°27' E 037°41'0 0.6
2018-Jul-21 10:30N 44°26' E 037°41'0 0.5
2018-Jul-21 10:00N 44°26' E 037°41'0 0.5
2018-Jul-21 09:30N 44°26' E 037°42'0 0.5
2018-Jul-21 09:00N 44°26' E 037°42'1 2.0
2018-Jul-21 08:30N 44°25' E 037°40'5 9.1
2018-Jul-21 08:00N 44°25' E 037°34'510.8
2018-Jul-21 07:30N 44°23' E 037°27'511.0
2018-Jul-21 07:00N 44°21' E 037°20'611.1
2018-Jul-21 06:30N 44°18' E 037°13'324 9.5
2018-Jul-19 20:21N 44°08' E 029°41'411.1
2018-Jul-19 20:00N 44°08' E 029°35'611.1
2018-Jul-19 19:30N 44°08' E 029°28'511.0
2018-Jul-19 19:00N 44°09' E 029°20'510.8
2018-Jul-19 18:30N 44°09' E 029°13'510.8
2018-Jul-19 18:00N 44°09' E 029°05'510.7
2018-Jul-19 17:30N 44°09' E 028°58'510.5
2018-Jul-19 17:00N 44°09' E 028°50'1 1.7
2018-Jul-19 16:29N 44°08' E 028°49'0 0.1
2018-Jul-19 15:59N 44°08' E 028°49'0 0.1
2018-Jul-19 15:29N 44°08' E 028°49'0 0.1
2018-Jul-19 14:59N 44°08' E 028°49'0 0.1
2018-Jul-19 14:29N 44°08' E 028°49'0 0.2
2018-Jul-19 13:29N 44°08' E 028°49'0 0.1
2018-Jul-19 12:59N 44°08' E 028°49'0 0.1
2018-Jul-19 12:29N 44°08' E 028°49'0 0.0
2018-Jul-19 11:59N 44°08' E 028°49'0 0.2
2018-Jul-19 11:29N 44°08' E 028°49'0 0.1
2018-Jul-19 10:59N 44°08' E 028°49'0 0.2
2018-Jul-19 10:29N 44°08' E 028°49'0 0.1
2018-Jul-19 09:59N 44°08' E 028°49'0 0.1
2018-Jul-19 09:29N 44°08' E 028°49'0 0.1
2018-Jul-19 08:59N 44°08' E 028°49'0 0.0
2018-Jul-19 08:29N 44°08' E 028°49'0 0.0
2018-Jul-19 07:59N 44°08' E 028°49'0 0.0
2018-Jul-19 07:29N 44°08' E 028°49'0 0.1
2018-Jul-19 06:59N 44°08' E 028°49'0 0.0
2018-Jul-19 06:29N 44°08' E 028°49'0 0.0
2018-Jul-19 05:59N 44°08' E 028°49'0 0.0
2018-Jul-19 05:29N 44°08' E 028°49'0 0.1
2018-Jul-19 04:59N 44°08' E 028°49'0 0.1
2018-Jul-19 04:29N 44°08' E 028°49'0 0.0
2018-Jul-19 03:59N 44°08' E 028°49'0 0.1
2018-Jul-19 03:29N 44°08' E 028°49'0 0.0
2018-Jul-19 02:59N 44°08' E 028°49'0 0.2
2018-Jul-19 02:29N 44°08' E 028°49'0 0.0
2018-Jul-19 01:59N 44°08' E 028°49'0 0.1
2018-Jul-19 01:29N 44°08' E 028°49'0 0.1
2018-Jul-19 00:59N 44°08' E 028°49'0 0.0
2018-Jul-19 00:29N 44°08' E 028°49'0 0.0
2018-Jul-18 23:59N 44°08' E 028°49'0 0.0
2018-Jul-18 23:29N 44°08' E 028°49'0 0.1
2018-Jul-18 22:59N 44°08' E 028°49'0 0.1
2018-Jul-18 22:29N 44°08' E 028°49'0 0.0
2018-Jul-18 21:59N 44°08' E 028°49'0 0.0
2018-Jul-18 21:29N 44°08' E 028°49'0 0.1
2018-Jul-18 20:59N 44°08' E 028°49'0 0.0
2018-Jul-18 20:29N 44°08' E 028°49'0 0.1
2018-Jul-18 19:59N 44°08' E 028°49'0 0.0
2018-Jul-18 19:28N 44°08' E 028°49'0 0.0
2018-Jul-18 18:59N 44°08' E 028°49'0 0.1
2018-Jul-18 18:29N 44°08' E 028°49'0 0.1
2018-Jul-18 17:59N 44°08' E 028°49'0 0.1
2018-Jul-18 17:29N 44°08' E 028°49'0 0.0
2018-Jul-18 16:59N 44°08' E 028°49'0 0.0
2018-Jul-18 16:29N 44°08' E 028°49'0 0.0
2018-Jul-18 15:59N 44°08' E 028°49'0 0.0
2018-Jul-18 15:29N 44°08' E 028°49'0 0.0
2018-Jul-18 14:59N 44°08' E 028°49'0 0.3
2018-Jul-18 14:29N 44°08' E 028°49'0 0.0
2018-Jul-18 13:29N 44°08' E 028°49'0 0.3
2018-Jul-18 12:59N 44°08' E 028°49'0 0.1
2018-Jul-18 12:29N 44°08' E 028°49'0 0.0
2018-Jul-18 11:59N 44°08' E 028°49'0 0.1
2018-Jul-18 11:29N 44°08' E 028°49'0 0.0
2018-Jul-18 10:29N 44°08' E 028°49'0 0.0
2018-Jul-18 09:59N 44°08' E 028°49'0 0.0
2018-Jul-18 09:29N 44°08' E 028°49'0 0.0
2018-Jul-18 08:59N 44°08' E 028°49'0 0.1
2018-Jul-18 08:29N 44°08' E 028°49'0 0.1
2018-Jul-18 07:59N 44°08' E 028°49'0 0.1
2018-Jul-18 07:29N 44°08' E 028°49'0 0.0
2018-Jul-18 06:59N 44°08' E 028°49'0 0.0
2018-Jul-18 06:29N 44°08' E 028°49'0 0.0
2018-Jul-18 06:00N 44°08' E 028°49'0 0.0
2018-Jul-18 05:29N 44°08' E 028°49'0 0.0
2018-Jul-18 04:59N 44°08' E 028°49'0 0.1
2018-Jul-18 04:29N 44°08' E 028°49'0 0.0
2018-Jul-18 03:59N 44°08' E 028°49'0 0.0
2018-Jul-18 03:29N 44°08' E 028°49'0 0.0
2018-Jul-18 02:59N 44°08' E 028°49'0 0.1
2018-Jul-18 02:29N 44°08' E 028°49'0 0.0
2018-Jul-18 01:59N 44°08' E 028°49'0 0.1
2018-Jul-18 01:29N 44°08' E 028°49'0 0.0
2018-Jul-18 00:59N 44°08' E 028°49'0 0.0
2018-Jul-18 00:29N 44°08' E 028°49'0 0.0
2018-Jul-17 23:59N 44°08' E 028°49'0 0.0
2018-Jul-17 23:29N 44°08' E 028°49'0 0.0
2018-Jul-17 22:59N 44°08' E 028°49'0 0.0
2018-Jul-17 22:29N 44°08' E 028°49'0 0.1
2018-Jul-17 21:59N 44°08' E 028°49'0 0.0
2018-Jul-17 21:29N 44°08' E 028°49'0 0.1
2018-Jul-17 20:59N 44°08' E 028°49'0 0.0
2018-Jul-17 20:29N 44°08' E 028°49'0 0.1
2018-Jul-17 19:59N 44°08' E 028°49'0 0.0
2018-Jul-17 19:29N 44°08' E 028°49'0 0.0
2018-Jul-17 18:59N 44°08' E 028°49'0 0.0
2018-Jul-17 18:29N 44°08' E 028°49'0 0.0
2018-Jul-17 17:59N 44°08' E 028°49'0 0.0
2018-Jul-17 17:29N 44°08' E 028°49'0 0.0
2018-Jul-17 16:59N 44°08' E 028°49'0 0.0
2018-Jul-17 16:29N 44°08' E 028°49'0 0.0
2018-Jul-17 15:59N 44°08' E 028°49'0 0.0
2018-Jul-17 15:29N 44°08' E 028°49'0 0.0
2018-Jul-17 14:59N 44°08' E 028°49'0 0.0
2018-Jul-17 14:29N 44°08' E 028°49'0 0.0
2018-Jul-17 13:59N 44°08' E 028°49'0 0.0
2018-Jul-17 13:29N 44°08' E 028°49'0 0.0
2018-Jul-17 12:59N 44°08' E 028°49'0 0.0
2018-Jul-17 12:29N 44°08' E 028°49'0 0.0
2018-Jul-17 11:59N 44°08' E 028°49'0 0.0
2018-Jul-17 11:29N 44°08' E 028°49'0 0.0
2018-Jul-17 10:59N 44°08' E 028°49'0 0.0
2018-Jul-17 10:30N 44°08' E 028°49'0 0.0
2018-Jul-17 09:59N 44°08' E 028°49'0 0.0
2018-Jul-17 09:29N 44°08' E 028°49'0 0.1
2018-Jul-17 08:59N 44°08' E 028°49'0 0.1
2018-Jul-17 08:29N 44°08' E 028°49'0 0.2
2018-Jul-17 07:59N 44°08' E 028°49'0 0.1
2018-Jul-17 07:29N 44°08' E 028°49'0 0.0
2018-Jul-17 06:59N 44°08' E 028°49'0 0.0
2018-Jul-17 06:29N 44°08' E 028°49'0 0.0
2018-Jul-17 05:59N 44°08' E 028°49'0 0.1
2018-Jul-17 05:29N 44°08' E 028°49'0 0.0
2018-Jul-17 04:59N 44°08' E 028°49'0 0.1
2018-Jul-17 04:26N 44°08' E 028°49'0 0.0
2018-Jul-17 03:59N 44°08' E 028°49'0 0.0
2018-Jul-17 03:29N 44°08' E 028°49'0 0.1
2018-Jul-17 02:59N 44°08' E 028°49'0 0.0
2018-Jul-17 02:29N 44°08' E 028°49'0 0.0
2018-Jul-17 01:59N 44°08' E 028°49'0 0.0
2018-Jul-17 01:29N 44°08' E 028°49'0 0.0
2018-Jul-17 00:59N 44°08' E 028°49'0 0.0
2018-Jul-17 00:29N 44°08' E 028°49'0 0.0
2018-Jul-16 23:29N 44°08' E 028°49'0 0.0
2018-Jul-16 22:59N 44°08' E 028°49'0 0.0
2018-Jul-16 22:29N 44°08' E 028°49'0 0.0
2018-Jul-16 21:59N 44°08' E 028°49'0 0.0
2018-Jul-16 21:29N 44°08' E 028°49'0 0.0
2018-Jul-16 20:59N 44°08' E 028°49'0 0.0
2018-Jul-16 20:30N 44°08' E 028°49'0 0.0
2018-Jul-16 19:59N 44°08' E 028°49'0 0.0
2018-Jul-16 19:27N 44°08' E 028°49'0 0.0
2018-Jul-16 18:59N 44°08' E 028°49'0 0.0
2018-Jul-16 18:29N 44°08' E 028°49'0 0.0
2018-Jul-16 18:00N 44°08' E 028°49'0 0.0
2018-Jul-16 17:29N 44°08' E 028°49'0 0.2
2018-Jul-16 16:59N 44°08' E 028°49'0 0.0
2018-Jul-16 16:29N 44°08' E 028°49'0 0.1
2018-Jul-16 15:59N 44°08' E 028°49'0 0.0
2018-Jul-16 15:29N 44°08' E 028°49'0 0.1
2018-Jul-16 14:59N 44°08' E 028°49'0 0.0
2018-Jul-16 14:29N 44°08' E 028°49'0 0.0
2018-Jul-16 13:59N 44°08' E 028°49'0 0.0
2018-Jul-16 13:29N 44°08' E 028°49'0 0.1
2018-Jul-16 12:59N 44°08' E 028°49'0 0.0
2018-Jul-16 12:29N 44°08' E 028°49'0 0.0
2018-Jul-16 11:59N 44°08' E 028°49'0 0.0
2018-Jul-16 11:29N 44°08' E 028°49'0 0.0
2018-Jul-16 10:59N 44°08' E 028°49'0 0.0
2018-Jul-16 10:29N 44°08' E 028°49'0 0.0
2018-Jul-16 09:59N 44°08' E 028°49'0 0.1
2018-Jul-16 09:29N 44°08' E 028°49'0 0.1
2018-Jul-16 08:59N 44°08' E 028°49'0 0.1
2018-Jul-16 08:29N 44°08' E 028°49'0 0.1
2018-Jul-16 07:59N 44°08' E 028°49'0 0.1
2018-Jul-16 07:29N 44°08' E 028°49'0 0.1
2018-Jul-16 06:59N 44°08' E 028°49'0 0.1
2018-Jul-16 06:29N 44°08' E 028°49'0 0.0
2018-Jul-16 05:59N 44°08' E 028°49'0 0.0
2018-Jul-16 05:29N 44°08' E 028°49'0 0.0
2018-Jul-16 04:59N 44°08' E 028°49'0 0.1
2018-Jul-16 04:29N 44°08' E 028°49'0 0.1
2018-Jul-16 03:59N 44°08' E 028°49'0 0.0
2018-Jul-16 03:29N 44°08' E 028°49'0 0.0
2018-Jul-16 02:59N 44°08' E 028°49'0 0.1
2018-Jul-16 02:29N 44°08' E 028°49'0 0.0
2018-Jul-16 01:59N 44°08' E 028°49'0 0.1
2018-Jul-16 01:29N 44°08' E 028°49'0 0.1
2018-Jul-16 00:59N 44°08' E 028°49'0 0.1
2018-Jul-16 00:29N 44°08' E 028°49'0 0.0
2018-Jul-15 23:59N 44°08' E 028°49'0 0.1
2018-Jul-15 23:29N 44°08' E 028°49'0 0.0
2018-Jul-15 22:59N 44°08' E 028°49'0 0.1
2018-Jul-15 22:29N 44°08' E 028°49'0 0.0
2018-Jul-15 21:59N 44°08' E 028°49'0 0.0
2018-Jul-15 21:26N 44°08' E 028°49'0 0.1
2018-Jul-15 20:59N 44°08' E 028°49'0 0.0
2018-Jul-15 20:29N 44°08' E 028°49'0 0.1
2018-Jul-15 19:59N 44°08' E 028°49'0 0.1
2018-Jul-15 19:29N 44°08' E 028°49'0 0.0
2018-Jul-15 18:59N 44°08' E 028°49'0 0.0
2018-Jul-15 18:29N 44°08' E 028°49'0 0.0
2018-Jul-15 17:59N 44°08' E 028°49'0 0.0
2018-Jul-15 17:29N 44°08' E 028°49'0 0.0
2018-Jul-15 16:59N 44°08' E 028°49'0 0.0
2018-Jul-15 16:29N 44°08' E 028°49'0 0.0
2018-Jul-15 15:59N 44°08' E 028°49'0 0.0
2018-Jul-15 15:29N 44°08' E 028°49'0 0.0
2018-Jul-15 14:59N 44°08' E 028°49'0 0.0
2018-Jul-15 14:23N 44°08' E 028°49'0 0.1
2018-Jul-15 13:59N 44°08' E 028°49'0 0.0
2018-Jul-15 13:29N 44°08' E 028°49'0 0.1
2018-Jul-15 12:59N 44°08' E 028°49'0 0.1
2018-Jul-15 12:29N 44°08' E 028°49'0 0.1
2018-Jul-15 11:59N 44°08' E 028°49'0 0.0
2018-Jul-15 11:29N 44°08' E 028°49'0 0.1
2018-Jul-15 10:59N 44°08' E 028°49'0 0.1
2018-Jul-15 10:29N 44°08' E 028°49'0 0.1
2018-Jul-15 09:59N 44°08' E 028°49'0 0.0
2018-Jul-15 09:29N 44°08' E 028°49'0 0.1
2018-Jul-15 08:59N 44°08' E 028°49'0 0.0
2018-Jul-15 08:29N 44°08' E 028°49'0 0.0
2018-Jul-15 07:59N 44°08' E 028°49'0 0.0
2018-Jul-15 07:29N 44°08' E 028°49'0 0.0
2018-Jul-15 06:59N 44°08' E 028°49'0 0.1
2018-Jul-15 06:29N 44°08' E 028°49'0 0.0
2018-Jul-15 05:59N 44°08' E 028°49'0 0.1
2018-Jul-15 05:29N 44°08' E 028°49'0 0.1
2018-Jul-15 04:59N 44°08' E 028°49'0 0.1
2018-Jul-15 04:29N 44°08' E 028°49'0 0.0
2018-Jul-15 03:59N 44°08' E 028°49'0 0.0
2018-Jul-15 03:29N 44°08' E 028°49'0 0.0
2018-Jul-15 02:59N 44°08' E 028°49'0 0.0
2018-Jul-15 02:29N 44°08' E 028°49'0 0.0
2018-Jul-15 01:59N 44°08' E 028°49'0 0.0
2018-Jul-15 01:29N 44°08' E 028°49'0 0.0
2018-Jul-15 00:59N 44°08' E 028°49'0 0.0
2018-Jul-15 00:29N 44°08' E 028°49'0 0.0
2018-Jul-14 23:59N 44°08' E 028°49'0 0.0
2018-Jul-14 23:29N 44°08' E 028°49'0 0.1
2018-Jul-14 22:59N 44°08' E 028°49'0 0.0
2018-Jul-14 22:29N 44°08' E 028°49'0 0.0
2018-Jul-14 21:59N 44°08' E 028°49'0 0.0
2018-Jul-14 21:29N 44°08' E 028°49'0 0.0
2018-Jul-14 20:59N 44°08' E 028°49'0 0.1
2018-Jul-14 20:29N 44°08' E 028°49'0 0.1
2018-Jul-14 19:59N 44°08' E 028°49'0 0.0
2018-Jul-14 19:29N 44°08' E 028°49'0 0.0
2018-Jul-14 18:59N 44°08' E 028°49'0 0.0
2018-Jul-14 18:26N 44°08' E 028°49'0 0.0
2018-Jul-14 17:59N 44°08' E 028°49'0 0.0
2018-Jul-14 17:29N 44°08' E 028°49'0 0.0
2018-Jul-14 16:59N 44°08' E 028°49'0 0.0
2018-Jul-14 16:29N 44°08' E 028°49'0 0.0
2018-Jul-14 15:59N 44°08' E 028°49'0 0.0
2018-Jul-14 15:29N 44°08' E 028°49'0 0.0
2018-Jul-14 14:59N 44°08' E 028°49'0 0.0
2018-Jul-14 14:29N 44°08' E 028°49'0 0.1
2018-Jul-14 13:29N 44°08' E 028°49'0 0.2
2018-Jul-14 12:59N 44°08' E 028°49'0 0.1
2018-Jul-14 12:26N 44°08' E 028°49'0 0.1
2018-Jul-14 11:59N 44°08' E 028°49'0 0.1
2018-Jul-14 11:29N 44°08' E 028°49'0 0.1
2018-Jul-14 10:59N 44°08' E 028°49'0 0.1
2018-Jul-14 10:29N 44°08' E 028°49'0 0.1
2018-Jul-14 09:59N 44°08' E 028°49'0 0.0
2018-Jul-14 09:29N 44°08' E 028°49'0 0.0
2018-Jul-14 08:59N 44°08' E 028°49'0 0.0
2018-Jul-14 08:29N 44°08' E 028°49'0 0.0
2018-Jul-14 07:59N 44°08' E 028°49'0 0.0
2018-Jul-14 07:29N 44°08' E 028°49'0 0.0
2018-Jul-14 06:59N 44°08' E 028°49'0 0.1
2018-Jul-14 06:29N 44°08' E 028°49'0 0.0
2018-Jul-14 05:59N 44°08' E 028°49'0 0.0
2018-Jul-14 05:29N 44°08' E 028°49'0 0.0
2018-Jul-14 04:59N 44°08' E 028°49'0 0.0
2018-Jul-14 04:29N 44°08' E 028°49'0 0.0
2018-Jul-14 03:59N 44°08' E 028°49'0 0.0
2018-Jul-14 03:29N 44°08' E 028°49'0 0.1
2018-Jul-14 02:59N 44°08' E 028°49'0 0.0
2018-Jul-14 02:29N 44°08' E 028°49'0 0.0
2018-Jul-14 01:59N 44°08' E 028°49'0 0.0
2018-Jul-14 01:29N 44°08' E 028°49'0 0.0
2018-Jul-14 00:59N 44°08' E 028°49'0 0.0
2018-Jul-14 00:29N 44°08' E 028°49'0 0.0
2018-Jul-13 23:59N 44°08' E 028°49'0 0.1
2018-Jul-13 23:29N 44°08' E 028°49'0 0.0
2018-Jul-13 22:59N 44°08' E 028°49'0 0.2
2018-Jul-13 22:29N 44°08' E 028°49'0 0.3
2018-Jul-13 22:00N 44°08' E 028°49'2 4.5
2018-Jul-13 21:30N 44°11' E 028°51'510.3
2018-Jul-13 21:00N 44°15' E 028°46'3 5.6
2018-Jul-13 20:30N 44°17' E 028°46'0 0.9
2018-Jul-13 20:00N 44°18' E 028°46'0 0.5
2018-Jul-13 19:28N 44°18' E 028°46'0 0.2
2018-Jul-13 18:55N 44°18' E 028°46'0 0.1
2018-Jul-13 18:28N 44°18' E 028°46'0 0.1
2018-Jul-13 17:58N 44°18' E 028°46'0 0.1
2018-Jul-13 17:28N 44°18' E 028°46'0 0.1
2018-Jul-13 16:58N 44°18' E 028°46'0 0.1
2018-Jul-13 16:28N 44°18' E 028°46'0 0.1
2018-Jul-13 15:58N 44°18' E 028°47'0 0.1
2018-Jul-13 15:28N 44°18' E 028°47'0 0.1
2018-Jul-13 14:58N 44°18' E 028°47'0 0.0
2018-Jul-13 13:58N 44°18' E 028°47'0 0.1
2018-Jul-13 13:28N 44°18' E 028°47'0 0.0
2018-Jul-13 12:58N 44°18' E 028°47'0 0.0
2018-Jul-13 12:28N 44°18' E 028°47'0 0.1
2018-Jul-13 11:58N 44°18' E 028°47'0 0.0
2018-Jul-13 11:28N 44°18' E 028°47'0 0.0
2018-Jul-13 10:55N 44°18' E 028°47'0 0.0
2018-Jul-13 10:28N 44°18' E 028°47'0 0.1
2018-Jul-13 09:58N 44°18' E 028°47'0 0.3
2018-Jul-13 09:28N 44°18' E 028°47'0 0.2
2018-Jul-13 08:58N 44°18' E 028°47'0 0.1
2018-Jul-13 08:28N 44°18' E 028°47'0 0.1
2018-Jul-13 07:58N 44°18' E 028°46'0 0.1
2018-Jul-13 07:28N 44°18' E 028°46'0 0.1
2018-Jul-13 06:58N 44°18' E 028°46'0 0.2
2018-Jul-13 06:28N 44°18' E 028°46'0 0.1
2018-Jul-13 05:58N 44°18' E 028°46'0 0.1
2018-Jul-13 05:28N 44°18' E 028°46'0 0.2
2018-Jul-13 04:58N 44°18' E 028°46'0 0.2
2018-Jul-13 04:28N 44°18' E 028°47'0 0.2
2018-Jul-13 03:58N 44°18' E 028°47'0 0.1
2018-Jul-13 03:28N 44°18' E 028°47'0 0.1
2018-Jul-13 02:58N 44°18' E 028°47'0 0.1
2018-Jul-13 02:28N 44°18' E 028°47'0 0.0
2018-Jul-13 01:58N 44°18' E 028°47'0 0.1
2018-Jul-13 01:28N 44°18' E 028°47'0 0.1
2018-Jul-13 00:58N 44°18' E 028°47'0 0.1
2018-Jul-13 00:28N 44°18' E 028°47'0 0.1
2018-Jul-12 23:58N 44°18' E 028°47'0 0.1
2018-Jul-12 23:28N 44°18' E 028°46'0 0.0
2018-Jul-12 22:58N 44°18' E 028°46'0 0.0
2018-Jul-12 22:28N 44°18' E 028°46'0 0.1
2018-Jul-12 21:58N 44°18' E 028°47'0 0.1
2018-Jul-12 21:28N 44°18' E 028°47'0 0.1
2018-Jul-12 20:58N 44°18' E 028°47'0 0.1
2018-Jul-12 20:28N 44°18' E 028°47'0 0.1
2018-Jul-12 19:58N 44°18' E 028°47'0 0.1
2018-Jul-12 19:28N 44°18' E 028°47'0 0.1
2018-Jul-12 18:52N 44°18' E 028°47'0 0.0
2018-Jul-12 18:25N 44°18' E 028°47'0 0.0
2018-Jul-12 17:58N 44°18' E 028°47'0 0.1
2018-Jul-12 17:28N 44°18' E 028°47'0 0.1
2018-Jul-12 16:55N 44°18' E 028°47'0 0.0
2018-Jul-12 16:29N 44°18' E 028°47'0 0.4
2018-Jul-12 16:00N 44°18' E 028°47'1 1.5
2018-Jul-12 15:30N 44°18' E 028°46'1 2.5
2018-Jul-12 15:00N 44°17' E 028°46'0 1.0
2018-Jul-12 14:30N 44°17' E 028°46'1 1.1
2018-Jul-12 14:00N 44°16' E 028°46'  
Track history (hours):
 
Tides and Currents Weather Stations Pressure Air Temp Water Temp Dewpoint Dewpoint Depression Visibility Wind Speed Wind Dir Waves Ship Positions

Dynasty

Last reported at 2018-Jul-22 13:58 UTC. Time now 2018-Jul-22 14:35 UTC.
Position N 44°42' E 037°50'.

Length 241 m; draft 8 m.

Type: Tanker. MMSI: 636014400.

Date/timePositionNaut miles runAvg speedWind from/ knotsBaromVisibWave heightAir tempDewpointWater temp
2018-Jul-22 13:58N 44°42' E 037°50'0 0.0
2018-Jul-22 13:28N 44°42' E 037°50'0 0.0
2018-Jul-22 12:58N 44°42' E 037°50'0 0.0
2018-Jul-22 12:28N 44°42' E 037°50'0 0.0
2018-Jul-22 11:58N 44°42' E 037°50'0 0.0
2018-Jul-22 11:28N 44°42' E 037°50'0 0.0
2018-Jul-22 10:58N 44°42' E 037°50'0 0.0
2018-Jul-22 10:28N 44°42' E 037°50'0 0.0
2018-Jul-22 09:58N 44°42' E 037°50'0 0.0
2018-Jul-22 09:28N 44°42' E 037°50'0 0.0
2018-Jul-22 08:58N 44°42' E 037°50'0 0.0
2018-Jul-22 08:25N 44°42' E 037°50'0 0.0
2018-Jul-22 07:58N 44°42' E 037°50'0 0.0
2018-Jul-22 07:28N 44°42' E 037°50'0 0.0
2018-Jul-22 06:58N 44°42' E 037°50'0 0.0
2018-Jul-22 06:28N 44°42' E 037°50'0 0.0
2018-Jul-22 05:58N 44°42' E 037°50'0 0.0
2018-Jul-22 05:28N 44°42' E 037°50'0 0.0
2018-Jul-22 04:58N 44°42' E 037°50'0 0.0
2018-Jul-22 04:28N 44°42' E 037°50'0 0.0
2018-Jul-22 03:58N 44°42' E 037°50'0 0.0
2018-Jul-22 03:28N 44°42' E 037°50'0 0.0
2018-Jul-22 02:58N 44°42' E 037°50'0 0.0
2018-Jul-22 02:28N 44°42' E 037°50'0 0.0
2018-Jul-22 01:58N 44°42' E 037°50'0 0.0
2018-Jul-22 01:28N 44°42' E 037°50'0 0.0
2018-Jul-22 00:58N 44°42' E 037°50'0 0.0
2018-Jul-22 00:28N 44°42' E 037°50'0 0.0
2018-Jul-21 23:58N 44°42' E 037°50'0 0.0
2018-Jul-21 23:30N 44°42' E 037°50'0 0.2
2018-Jul-21 23:00N 44°42' E 037°50'1 1.6
2018-Jul-21 22:30N 44°41' E 037°50'3 6.6
2018-Jul-21 22:00N 44°38' E 037°52'3 5.3
2018-Jul-21 21:30N 44°36' E 037°52'3 6.3
2018-Jul-21 21:00N 44°33' E 037°51'4 8.6
2018-Jul-21 20:30N 44°29' E 037°48'4 8.9
2018-Jul-21 20:00N 44°26' E 037°44'0 0.9
2018-Jul-21 19:30N 44°26' E 037°43'0 0.2
2018-Jul-21 19:00N 44°26' E 037°43'0 0.2
2018-Jul-21 18:30N 44°26' E 037°43'0 0.3
2018-Jul-21 18:00N 44°26' E 037°43'0 0.4
2018-Jul-21 17:30N 44°26' E 037°42'0 0.3
2018-Jul-21 17:00N 44°26' E 037°42'0 0.4
2018-Jul-21 16:30N 44°26' E 037°42'0 0.4
2018-Jul-21 16:00N 44°26' E 037°42'0 0.3
2018-Jul-21 15:30N 44°26' E 037°42'0 0.2
2018-Jul-21 15:00N 44°25' E 037°41'0 0.2
2018-Jul-21 14:30N 44°25' E 037°41'0 0.2
2018-Jul-21 13:30N 44°25' E 037°41'0 0.1
2018-Jul-21 13:00N 44°25' E 037°41'0 0.2
2018-Jul-21 12:30N 44°25' E 037°41'1 1.9
2018-Jul-21 12:00N 44°26' E 037°40'1 2.4
2018-Jul-21 11:30N 44°27' E 037°41'0 0.7
2018-Jul-21 11:00N 44°27' E 037°41'0 0.6
2018-Jul-21 10:30N 44°26' E 037°41'0 0.5
2018-Jul-21 10:00N 44°26' E 037°41'0 0.5
2018-Jul-21 09:30N 44°26' E 037°42'0 0.5
2018-Jul-21 09:00N 44°26' E 037°42'1 2.0
2018-Jul-21 08:30N 44°25' E 037°40'5 9.1
2018-Jul-21 08:00N 44°25' E 037°34'510.8
2018-Jul-21 07:30N 44°23' E 037°27'511.0
2018-Jul-21 07:00N 44°21' E 037°20'611.1
2018-Jul-21 06:30N 44°18' E 037°13'324 9.5
2018-Jul-19 20:21N 44°08' E 029°41'411.1
2018-Jul-19 20:00N 44°08' E 029°35'611.1
2018-Jul-19 19:30N 44°08' E 029°28'511.0
2018-Jul-19 19:00N 44°09' E 029°20'510.8
2018-Jul-19 18:30N 44°09' E 029°13'510.8
2018-Jul-19 18:00N 44°09' E 029°05'510.7
2018-Jul-19 17:30N 44°09' E 028°58'510.5
2018-Jul-19 17:00N 44°09' E 028°50'1 1.7
2018-Jul-19 16:29N 44°08' E 028°49'0 0.1
2018-Jul-19 15:59N 44°08' E 028°49'0 0.1
2018-Jul-19 15:29N 44°08' E 028°49'0 0.1
2018-Jul-19 14:59N 44°08' E 028°49'0 0.1
2018-Jul-19 14:29N 44°08' E 028°49'0 0.2
2018-Jul-19 13:29N 44°08' E 028°49'0 0.1
2018-Jul-19 12:59N 44°08' E 028°49'0 0.1
2018-Jul-19 12:29N 44°08' E 028°49'0 0.0
2018-Jul-19 11:59N 44°08' E 028°49'0 0.2
2018-Jul-19 11:29N 44°08' E 028°49'0 0.1
2018-Jul-19 10:59N 44°08' E 028°49'0 0.2
2018-Jul-19 10:29N 44°08' E 028°49'0 0.1
2018-Jul-19 09:59N 44°08' E 028°49'0 0.1
2018-Jul-19 09:29N 44°08' E 028°49'0 0.1
2018-Jul-19 08:59N 44°08' E 028°49'0 0.0
2018-Jul-19 08:29N 44°08' E 028°49'0 0.0
2018-Jul-19 07:59N 44°08' E 028°49'0 0.0
2018-Jul-19 07:29N 44°08' E 028°49'0 0.1
2018-Jul-19 06:59N 44°08' E 028°49'0 0.0
2018-Jul-19 06:29N 44°08' E 028°49'0 0.0
2018-Jul-19 05:59N 44°08' E 028°49'0 0.0
2018-Jul-19 05:29N 44°08' E 028°49'0 0.1
2018-Jul-19 04:59N 44°08' E 028°49'0 0.1
2018-Jul-19 04:29N 44°08' E 028°49'0 0.0
2018-Jul-19 03:59N 44°08' E 028°49'0 0.1
2018-Jul-19 03:29N 44°08' E 028°49'0 0.0
2018-Jul-19 02:59N 44°08' E 028°49'0 0.2
2018-Jul-19 02:29N 44°08' E 028°49'0 0.0
2018-Jul-19 01:59N 44°08' E 028°49'0 0.1
2018-Jul-19 01:29N 44°08' E 028°49'0 0.1
2018-Jul-19 00:59N 44°08' E 028°49'0 0.0
2018-Jul-19 00:29N 44°08' E 028°49'0 0.0
2018-Jul-18 23:59N 44°08' E 028°49'0 0.0
2018-Jul-18 23:29N 44°08' E 028°49'0 0.1
2018-Jul-18 22:59N 44°08' E 028°49'0 0.1
2018-Jul-18 22:29N 44°08' E 028°49'0 0.0
2018-Jul-18 21:59N 44°08' E 028°49'0 0.0
2018-Jul-18 21:29N 44°08' E 028°49'0 0.1
2018-Jul-18 20:59N 44°08' E 028°49'0 0.0
2018-Jul-18 20:29N 44°08' E 028°49'0 0.1
2018-Jul-18 19:59N 44°08' E 028°49'0 0.0
2018-Jul-18 19:28N 44°08' E 028°49'0 0.0
2018-Jul-18 18:59N 44°08' E 028°49'0 0.1
2018-Jul-18 18:29N 44°08' E 028°49'0 0.1
2018-Jul-18 17:59N 44°08' E 028°49'0 0.1
2018-Jul-18 17:29N 44°08' E 028°49'0 0.0
2018-Jul-18 16:59N 44°08' E 028°49'0 0.0
2018-Jul-18 16:29N 44°08' E 028°49'0 0.0
2018-Jul-18 15:59N 44°08' E 028°49'0 0.0
2018-Jul-18 15:29N 44°08' E 028°49'0 0.0
2018-Jul-18 14:59N 44°08' E 028°49'0 0.3
2018-Jul-18 14:29N 44°08' E 028°49'0 0.0
2018-Jul-18 13:29N 44°08' E 028°49'0 0.3
2018-Jul-18 12:59N 44°08' E 028°49'0 0.1
2018-Jul-18 12:29N 44°08' E 028°49'0 0.0
2018-Jul-18 11:59N 44°08' E 028°49'0 0.1
2018-Jul-18 11:29N 44°08' E 028°49'0 0.0
2018-Jul-18 10:29N 44°08' E 028°49'0 0.0
2018-Jul-18 09:59N 44°08' E 028°49'0 0.0
2018-Jul-18 09:29N 44°08' E 028°49'0 0.0
2018-Jul-18 08:59N 44°08' E 028°49'0 0.1
2018-Jul-18 08:29N 44°08' E 028°49'0 0.1
2018-Jul-18 07:59N 44°08' E 028°49'0 0.1
2018-Jul-18 07:29N 44°08' E 028°49'0 0.0
2018-Jul-18 06:59N 44°08' E 028°49'0 0.0
2018-Jul-18 06:29N 44°08' E 028°49'0 0.0
2018-Jul-18 06:00N 44°08' E 028°49'0 0.0
2018-Jul-18 05:29N 44°08' E 028°49'0 0.0
2018-Jul-18 04:59N 44°08' E 028°49'0 0.1
2018-Jul-18 04:29N 44°08' E 028°49'0 0.0
2018-Jul-18 03:59N 44°08' E 028°49'0 0.0
2018-Jul-18 03:29N 44°08' E 028°49'0 0.0
2018-Jul-18 02:59N 44°08' E 028°49'0 0.1
2018-Jul-18 02:29N 44°08' E 028°49'0 0.0
2018-Jul-18 01:59N 44°08' E 028°49'0 0.1
2018-Jul-18 01:29N 44°08' E 028°49'0 0.0
2018-Jul-18 00:59N 44°08' E 028°49'0 0.0
2018-Jul-18 00:29N 44°08' E 028°49'0 0.0
2018-Jul-17 23:59N 44°08' E 028°49'0 0.0
2018-Jul-17 23:29N 44°08' E 028°49'0 0.0
2018-Jul-17 22:59N 44°08' E 028°49'0 0.0
2018-Jul-17 22:29N 44°08' E 028°49'0 0.1
2018-Jul-17 21:59N 44°08' E 028°49'0 0.0
2018-Jul-17 21:29N 44°08' E 028°49'0 0.1
2018-Jul-17 20:59N 44°08' E 028°49'0 0.0
2018-Jul-17 20:29N 44°08' E 028°49'0 0.1
2018-Jul-17 19:59N 44°08' E 028°49'0 0.0
2018-Jul-17 19:29N 44°08' E 028°49'0 0.0
2018-Jul-17 18:59N 44°08' E 028°49'0 0.0
2018-Jul-17 18:29N 44°08' E 028°49'0 0.0
2018-Jul-17 17:59N 44°08' E 028°49'0 0.0
2018-Jul-17 17:29N 44°08' E 028°49'0 0.0
2018-Jul-17 16:59N 44°08' E 028°49'0 0.0
2018-Jul-17 16:29N 44°08' E 028°49'0 0.0
2018-Jul-17 15:59N 44°08' E 028°49'0 0.0
2018-Jul-17 15:29N 44°08' E 028°49'0 0.0
2018-Jul-17 14:59N 44°08' E 028°49'0 0.0
2018-Jul-17 14:29N 44°08' E 028°49'0 0.0
2018-Jul-17 13:59N 44°08' E 028°49'0 0.0
2018-Jul-17 13:29N 44°08' E 028°49'0 0.0
2018-Jul-17 12:59N 44°08' E 028°49'0 0.0
2018-Jul-17 12:29N 44°08' E 028°49'0 0.0
2018-Jul-17 11:59N 44°08' E 028°49'0 0.0
2018-Jul-17 11:29N 44°08' E 028°49'0 0.0
2018-Jul-17 10:59N 44°08' E 028°49'0 0.0
2018-Jul-17 10:30N 44°08' E 028°49'0 0.0
2018-Jul-17 09:59N 44°08' E 028°49'0 0.0
2018-Jul-17 09:29N 44°08' E 028°49'0 0.1
2018-Jul-17 08:59N 44°08' E 028°49'0 0.1
2018-Jul-17 08:29N 44°08' E 028°49'0 0.2
2018-Jul-17 07:59N 44°08' E 028°49'0 0.1
2018-Jul-17 07:29N 44°08' E 028°49'0 0.0
2018-Jul-17 06:59N 44°08' E 028°49'0 0.0
2018-Jul-17 06:29N 44°08' E 028°49'0 0.0
2018-Jul-17 05:59N 44°08' E 028°49'0 0.1
2018-Jul-17 05:29N 44°08' E 028°49'0 0.0
2018-Jul-17 04:59N 44°08' E 028°49'0 0.1
2018-Jul-17 04:26N 44°08' E 028°49'0 0.0
2018-Jul-17 03:59N 44°08' E 028°49'0 0.0
2018-Jul-17 03:29N 44°08' E 028°49'0 0.1
2018-Jul-17 02:59N 44°08' E 028°49'0 0.0
2018-Jul-17 02:29N 44°08' E 028°49'0 0.0
2018-Jul-17 01:59N 44°08' E 028°49'0 0.0
2018-Jul-17 01:29N 44°08' E 028°49'0 0.0
2018-Jul-17 00:59N 44°08' E 028°49'0 0.0
2018-Jul-17 00:29N 44°08' E 028°49'0 0.0
2018-Jul-16 23:29N 44°08' E 028°49'0 0.0
2018-Jul-16 22:59N 44°08' E 028°49'0 0.0
2018-Jul-16 22:29N 44°08' E 028°49'0 0.0
2018-Jul-16 21:59N 44°08' E 028°49'0 0.0
2018-Jul-16 21:29N 44°08' E 028°49'0 0.0
2018-Jul-16 20:59N 44°08' E 028°49'0 0.0
2018-Jul-16 20:30N 44°08' E 028°49'0 0.0
2018-Jul-16 19:59N 44°08' E 028°49'0 0.0
2018-Jul-16 19:27N 44°08' E 028°49'0 0.0
2018-Jul-16 18:59N 44°08' E 028°49'0 0.0
2018-Jul-16 18:29N 44°08' E 028°49'0 0.0
2018-Jul-16 18:00N 44°08' E 028°49'0 0.0
2018-Jul-16 17:29N 44°08' E 028°49'0 0.2
2018-Jul-16 16:59N 44°08' E 028°49'0 0.0
2018-Jul-16 16:29N 44°08' E 028°49'0 0.1
2018-Jul-16 15:59N 44°08' E 028°49'0 0.0
2018-Jul-16 15:29N 44°08' E 028°49'0 0.1
2018-Jul-16 14:59N 44°08' E 028°49'0 0.0
2018-Jul-16 14:29N 44°08' E 028°49'0 0.0
2018-Jul-16 13:59N 44°08' E 028°49'0 0.0
2018-Jul-16 13:29N 44°08' E 028°49'0 0.1
2018-Jul-16 12:59N 44°08' E 028°49'0 0.0
2018-Jul-16 12:29N 44°08' E 028°49'0 0.0
2018-Jul-16 11:59N 44°08' E 028°49'0 0.0
2018-Jul-16 11:29N 44°08' E 028°49'0 0.0
2018-Jul-16 10:59N 44°08' E 028°49'0 0.0
2018-Jul-16 10:29N 44°08' E 028°49'0 0.0
2018-Jul-16 09:59N 44°08' E 028°49'0 0.1
2018-Jul-16 09:29N 44°08' E 028°49'0 0.1
2018-Jul-16 08:59N 44°08' E 028°49'0 0.1
2018-Jul-16 08:29N 44°08' E 028°49'0 0.1
2018-Jul-16 07:59N 44°08' E 028°49'0 0.1
2018-Jul-16 07:29N 44°08' E 028°49'0 0.1
2018-Jul-16 06:59N 44°08' E 028°49'0 0.1
2018-Jul-16 06:29N 44°08' E 028°49'0 0.0
2018-Jul-16 05:59N 44°08' E 028°49'0 0.0
2018-Jul-16 05:29N 44°08' E 028°49'0 0.0
2018-Jul-16 04:59N 44°08' E 028°49'0 0.1
2018-Jul-16 04:29N 44°08' E 028°49'0 0.1
2018-Jul-16 03:59N 44°08' E 028°49'0 0.0
2018-Jul-16 03:29N 44°08' E 028°49'0 0.0
2018-Jul-16 02:59N 44°08' E 028°49'0 0.1
2018-Jul-16 02:29N 44°08' E 028°49'0 0.0
2018-Jul-16 01:59N 44°08' E 028°49'0 0.1
2018-Jul-16 01:29N 44°08' E 028°49'0 0.1
2018-Jul-16 00:59N 44°08' E 028°49'0 0.1
2018-Jul-16 00:29N 44°08' E 028°49'0 0.0
2018-Jul-15 23:59N 44°08' E 028°49'0 0.1
2018-Jul-15 23:29N 44°08' E 028°49'0 0.0
2018-Jul-15 22:59N 44°08' E 028°49'0 0.1
2018-Jul-15 22:29N 44°08' E 028°49'0 0.0
2018-Jul-15 21:59N 44°08' E 028°49'0 0.0
2018-Jul-15 21:26N 44°08' E 028°49'0 0.1
2018-Jul-15 20:59N 44°08' E 028°49'0 0.0
2018-Jul-15 20:29N 44°08' E 028°49'0 0.1
2018-Jul-15 19:59N 44°08' E 028°49'0 0.1
2018-Jul-15 19:29N 44°08' E 028°49'0 0.0
2018-Jul-15 18:59N 44°08' E 028°49'0 0.0
2018-Jul-15 18:29N 44°08' E 028°49'0 0.0
2018-Jul-15 17:59N 44°08' E 028°49'0 0.0
2018-Jul-15 17:29N 44°08' E 028°49'0 0.0
2018-Jul-15 16:59N 44°08' E 028°49'0 0.0
2018-Jul-15 16:29N 44°08' E 028°49'0 0.0
2018-Jul-15 15:59N 44°08' E 028°49'0 0.0
2018-Jul-15 15:29N 44°08' E 028°49'0 0.0
2018-Jul-15 14:59N 44°08' E 028°49'0 0.0
2018-Jul-15 14:23N 44°08' E 028°49'0 0.1
2018-Jul-15 13:59N 44°08' E 028°49'0 0.0
2018-Jul-15 13:29N 44°08' E 028°49'0 0.1
2018-Jul-15 12:59N 44°08' E 028°49'0 0.1
2018-Jul-15 12:29N 44°08' E 028°49'0 0.1
2018-Jul-15 11:59N 44°08' E 028°49'0 0.0
2018-Jul-15 11:29N 44°08' E 028°49'0 0.1
2018-Jul-15 10:59N 44°08' E 028°49'0 0.1
2018-Jul-15 10:29N 44°08' E 028°49'0 0.1
2018-Jul-15 09:59N 44°08' E 028°49'0 0.0
2018-Jul-15 09:29N 44°08' E 028°49'0 0.1
2018-Jul-15 08:59N 44°08' E 028°49'0 0.0
2018-Jul-15 08:29N 44°08' E 028°49'0 0.0
2018-Jul-15 07:59N 44°08' E 028°49'0 0.0
2018-Jul-15 07:29N 44°08' E 028°49'0 0.0
2018-Jul-15 06:59N 44°08' E 028°49'0 0.1
2018-Jul-15 06:29N 44°08' E 028°49'0 0.0
2018-Jul-15 05:59N 44°08' E 028°49'0 0.1
2018-Jul-15 05:29N 44°08' E 028°49'0 0.1
2018-Jul-15 04:59N 44°08' E 028°49'0 0.1
2018-Jul-15 04:29N 44°08' E 028°49'0 0.0
2018-Jul-15 03:59N 44°08' E 028°49'0 0.0
2018-Jul-15 03:29N 44°08' E 028°49'0 0.0
2018-Jul-15 02:59N 44°08' E 028°49'0 0.0
2018-Jul-15 02:29N 44°08' E 028°49'0 0.0
2018-Jul-15 01:59N 44°08' E 028°49'0 0.0
2018-Jul-15 01:29N 44°08' E 028°49'0 0.0
2018-Jul-15 00:59N 44°08' E 028°49'0 0.0
2018-Jul-15 00:29N 44°08' E 028°49'0 0.0
2018-Jul-14 23:59N 44°08' E 028°49'0 0.0
2018-Jul-14 23:29N 44°08' E 028°49'0 0.1
2018-Jul-14 22:59N 44°08' E 028°49'0 0.0
2018-Jul-14 22:29N 44°08' E 028°49'0 0.0
2018-Jul-14 21:59N 44°08' E 028°49'0 0.0
2018-Jul-14 21:29N 44°08' E 028°49'0 0.0
2018-Jul-14 20:59N 44°08' E 028°49'0 0.1
2018-Jul-14 20:29N 44°08' E 028°49'0 0.1
2018-Jul-14 19:59N 44°08' E 028°49'0 0.0
2018-Jul-14 19:29N 44°08' E 028°49'0 0.0
2018-Jul-14 18:59N 44°08' E 028°49'0 0.0
2018-Jul-14 18:26N 44°08' E 028°49'0 0.0
2018-Jul-14 17:59N 44°08' E 028°49'0 0.0
2018-Jul-14 17:29N 44°08' E 028°49'0 0.0
2018-Jul-14 16:59N 44°08' E 028°49'0 0.0
2018-Jul-14 16:29N 44°08' E 028°49'0 0.0
2018-Jul-14 15:59N 44°08' E 028°49'0 0.0
2018-Jul-14 15:29N 44°08' E 028°49'0 0.0
2018-Jul-14 14:59N 44°08' E 028°49'0 0.0
2018-Jul-14 14:29N 44°08' E 028°49'0 0.1
2018-Jul-14 13:29N 44°08' E 028°49'0 0.2
2018-Jul-14 12:59N 44°08' E 028°49'0 0.1
2018-Jul-14 12:26N 44°08' E 028°49'0 0.1
2018-Jul-14 11:59N 44°08' E 028°49'0 0.1
2018-Jul-14 11:29N 44°08' E 028°49'0 0.1
2018-Jul-14 10:59N 44°08' E 028°49'0 0.1
2018-Jul-14 10:29N 44°08' E 028°49'0 0.1
2018-Jul-14 09:59N 44°08' E 028°49'0 0.0
2018-Jul-14 09:29N 44°08' E 028°49'0 0.0
2018-Jul-14 08:59N 44°08' E 028°49'0 0.0
2018-Jul-14 08:29N 44°08' E 028°49'0 0.0
2018-Jul-14 07:59N 44°08' E 028°49'0 0.0
2018-Jul-14 07:29N 44°08' E 028°49'0 0.0
2018-Jul-14 06:59N 44°08' E 028°49'0 0.1
2018-Jul-14 06:29N 44°08' E 028°49'0 0.0
2018-Jul-14 05:59N 44°08' E 028°49'0 0.0
2018-Jul-14 05:29N 44°08' E 028°49'0 0.0
2018-Jul-14 04:59N 44°08' E 028°49'0 0.0
2018-Jul-14 04:29N 44°08' E 028°49'0 0.0
2018-Jul-14 03:59N 44°08' E 028°49'0 0.0
2018-Jul-14 03:29N 44°08' E 028°49'0 0.1
2018-Jul-14 02:59N 44°08' E 028°49'0 0.0
2018-Jul-14 02:29N 44°08' E 028°49'0 0.0
2018-Jul-14 01:59N 44°08' E 028°49'0 0.0
2018-Jul-14 01:29N 44°08' E 028°49'0 0.0
2018-Jul-14 00:59N 44°08' E 028°49'0 0.0
2018-Jul-14 00:29N 44°08' E 028°49'0 0.0
2018-Jul-13 23:59N 44°08' E 028°49'0 0.1
2018-Jul-13 23:29N 44°08' E 028°49'0 0.0
2018-Jul-13 22:59N 44°08' E 028°49'0 0.2
2018-Jul-13 22:29N 44°08' E 028°49'0 0.3
2018-Jul-13 22:00N 44°08' E 028°49'2 4.5
2018-Jul-13 21:30N 44°11' E 028°51'510.3
2018-Jul-13 21:00N 44°15' E 028°46'3 5.6
2018-Jul-13 20:30N 44°17' E 028°46'0 0.9
2018-Jul-13 20:00N 44°18' E 028°46'0 0.5
2018-Jul-13 19:28N 44°18' E 028°46'0 0.2
2018-Jul-13 18:55N 44°18' E 028°46'0 0.1
2018-Jul-13 18:28N 44°18' E 028°46'0 0.1
2018-Jul-13 17:58N 44°18' E 028°46'0 0.1
2018-Jul-13 17:28N 44°18' E 028°46'0 0.1
2018-Jul-13 16:58N 44°18' E 028°46'0 0.1
2018-Jul-13 16:28N 44°18' E 028°46'0 0.1
2018-Jul-13 15:58N 44°18' E 028°47'0 0.1
2018-Jul-13 15:28N 44°18' E 028°47'0 0.1
2018-Jul-13 14:58N 44°18' E 028°47'0 0.0
2018-Jul-13 13:58N 44°18' E 028°47'0 0.1
2018-Jul-13 13:28N 44°18' E 028°47'0 0.0
2018-Jul-13 12:58N 44°18' E 028°47'0 0.0
2018-Jul-13 12:28N 44°18' E 028°47'0 0.1
2018-Jul-13 11:58N 44°18' E 028°47'0 0.0
2018-Jul-13 11:28N 44°18' E 028°47'0 0.0
2018-Jul-13 10:55N 44°18' E 028°47'0 0.0
2018-Jul-13 10:28N 44°18' E 028°47'0 0.1
2018-Jul-13 09:58N 44°18' E 028°47'0 0.3
2018-Jul-13 09:28N 44°18' E 028°47'0 0.2
2018-Jul-13 08:58N 44°18' E 028°47'0 0.1
2018-Jul-13 08:28N 44°18' E 028°47'0 0.1
2018-Jul-13 07:58N 44°18' E 028°46'0 0.1
2018-Jul-13 07:28N 44°18' E 028°46'0 0.1
2018-Jul-13 06:58N 44°18' E 028°46'0 0.2
2018-Jul-13 06:28N 44°18' E 028°46'0 0.1
2018-Jul-13 05:58N 44°18' E 028°46'0 0.1
2018-Jul-13 05:28N 44°18' E 028°46'0 0.2
2018-Jul-13 04:58N 44°18' E 028°46'0 0.2
2018-Jul-13 04:28N 44°18' E 028°47'0 0.2
2018-Jul-13 03:58N 44°18' E 028°47'0 0.1
2018-Jul-13 03:28N 44°18' E 028°47'0 0.1
2018-Jul-13 02:58N 44°18' E 028°47'0 0.1
2018-Jul-13 02:28N 44°18' E 028°47'0 0.0
2018-Jul-13 01:58N 44°18' E 028°47'0 0.1
2018-Jul-13 01:28N 44°18' E 028°47'0 0.1
2018-Jul-13 00:58N 44°18' E 028°47'0 0.1
2018-Jul-13 00:28N 44°18' E 028°47'0 0.1
2018-Jul-12 23:58N 44°18' E 028°47'0 0.1
2018-Jul-12 23:28N 44°18' E 028°46'0 0.0
2018-Jul-12 22:58N 44°18' E 028°46'0 0.0
2018-Jul-12 22:28N 44°18' E 028°46'0 0.1
2018-Jul-12 21:58N 44°18' E 028°47'0 0.1
2018-Jul-12 21:28N 44°18' E 028°47'0 0.1
2018-Jul-12 20:58N 44°18' E 028°47'0 0.1
2018-Jul-12 20:28N 44°18' E 028°47'0 0.1
2018-Jul-12 19:58N 44°18' E 028°47'0 0.1
2018-Jul-12 19:28N 44°18' E 028°47'0 0.1
2018-Jul-12 18:52N 44°18' E 028°47'0 0.0
2018-Jul-12 18:25N 44°18' E 028°47'0 0.0
2018-Jul-12 17:58N 44°18' E 028°47'0 0.1
2018-Jul-12 17:28N 44°18' E 028°47'0 0.1
2018-Jul-12 16:55N 44°18' E 028°47'0 0.0
2018-Jul-12 16:29N 44°18' E 028°47'0 0.4
2018-Jul-12 16:00N 44°18' E 028°47'1 1.5
2018-Jul-12 15:30N 44°18' E 028°46'1 2.5
2018-Jul-12 15:00N 44°17' E 028°46'0 1.0
2018-Jul-12 14:30N 44°17' E 028°46'1 1.1
2018-Jul-12 14:00N 44°16' E 028°46'  

Dump ship's entire track history